Terminal Aerodrome Forecast
Issued by NWS

Home | Current Version | Previous Version | Text Only | Print | Product List | Glossary On
Versions: 1 2 3 4 5 6 7 8 9 10 11 12 13 14
000
FTUS46 KMTR 261726
TAFMRY
TAF
KMRY 261726Z 2618/2718 26010G16KT P6SM OVC020
     FM262000 26012G18KT P6SM SCT020 BKN025
     FM270200 22008KT P6SM BKN010 OVC016
     FM270600 VRB03KT P6SM OVC008
     FM270800 VRB03KT 6SM BR OVC005
     FM271730 26005KT P6SM SCT012=

USA.gov is the U.S. government's official web portal to all federal, state and local government web resources and services.